createdAt,value
2022-12-17T00:04:27.478Z,-4.61
2022-12-17T00:09:50.220Z,-4.69
2022-12-17T00:15:10.600Z,-4.81
2022-12-17T00:20:30.599Z,-4.92
2022-12-17T00:25:50.523Z,-4.98
2022-12-17T00:31:11.053Z,-5.03
2022-12-17T00:36:30.920Z,-5.05
2022-12-17T00:41:50.765Z,-5.07
2022-12-17T00:47:10.724Z,-5.10
2022-12-17T00:52:30.947Z,-5.19
2022-12-17T00:57:50.814Z,-5.27
2022-12-17T01:03:10.791Z,-5.32
2022-12-17T01:08:33.771Z,-5.49
2022-12-17T01:13:53.649Z,-5.59
2022-12-17T01:19:17.608Z,-5.62
2022-12-17T01:24:37.516Z,-5.68
2022-12-17T01:29:57.354Z,-5.78
2022-12-17T01:35:30.807Z,-5.84
2022-12-17T01:40:50.748Z,-5.89
2022-12-17T01:46:10.724Z,-6.00
2022-12-17T01:51:32.429Z,-6.15
2022-12-17T01:56:54.599Z,-6.28
2022-12-17T02:02:14.632Z,-6.30
2022-12-17T02:08:05.188Z,-6.39
2022-12-17T02:13:54.412Z,-6.42
2022-12-17T02:19:21.504Z,-6.42
2022-12-17T02:24:50.055Z,-6.46
2022-12-17T02:30:14.051Z,-6.46
2022-12-17T02:35:36.765Z,-6.46
2022-12-17T02:40:58.169Z,-6.51
2022-12-17T02:46:18.166Z,-6.54
2022-12-17T02:51:39.281Z,-6.56
2022-12-17T02:56:59.093Z,-6.60
2022-12-17T03:02:19.060Z,-6.63
2022-12-17T03:07:39.152Z,-6.67
2022-12-17T03:12:59.032Z,-6.71
2022-12-17T03:18:18.806Z,-6.76
2022-12-17T03:23:39.031Z,-6.83
2022-12-17T03:28:59.089Z,-6.85
2022-12-17T03:34:19.365Z,-6.90
2022-12-17T03:39:39.236Z,-6.95
2022-12-17T03:44:59.152Z,-7.05
2022-12-17T03:50:19.231Z,-7.10
2022-12-17T03:55:39.142Z,-7.20
2022-12-17T04:00:59.040Z,-7.25
2022-12-17T04:06:18.921Z,-7.28
2022-12-17T04:11:38.698Z,-7.34
2022-12-17T04:16:58.604Z,-7.39
2022-12-17T04:22:18.361Z,-7.42
2022-12-17T04:27:38.318Z,-7.49
2022-12-17T04:32:58.222Z,-7.54
2022-12-17T04:38:18.088Z,-7.61
2022-12-17T04:43:38.695Z,-7.62
2022-12-17T04:48:59.414Z,-7.65
2022-12-17T04:54:19.794Z,-7.71
2022-12-17T04:59:39.689Z,-7.69
2022-12-17T05:04:59.577Z,-7.66
2022-12-17T05:10:19.456Z,-7.65
2022-12-17T05:15:39.925Z,-7.66
2022-12-17T05:21:00.218Z,-7.68
2022-12-17T05:26:37.153Z,-7.69
2022-12-17T05:31:57.044Z,-7.61
2022-12-17T05:37:16.944Z,-7.48
2022-12-17T05:42:36.779Z,-7.35
2022-12-17T05:47:56.752Z,-7.35
2022-12-17T05:53:21.238Z,-7.42
2022-12-17T05:58:41.056Z,-7.43
2022-12-17T06:04:01.503Z,-7.20
2022-12-17T06:09:21.993Z,-6.93
2022-12-17T06:14:42.047Z,-6.73
2022-12-17T06:20:01.858Z,-6.61
2022-12-17T06:25:22.444Z,-6.48
2022-12-17T06:30:42.534Z,-6.35
2022-12-17T06:36:02.461Z,-6.28
2022-12-17T06:41:22.313Z,-6.09
2022-12-17T06:46:42.319Z,-5.92
2022-12-17T06:52:02.478Z,-5.81
2022-12-17T06:57:22.542Z,-5.89
2022-12-17T07:02:42.486Z,-5.99
2022-12-17T07:08:22.493Z,-5.97
2022-12-17T07:13:42.331Z,-6.15
2022-12-17T07:19:02.151Z,-6.41
2022-12-17T07:24:22.439Z,-6.39
2022-12-17T07:29:42.489Z,-6.37
2022-12-17T07:35:02.344Z,-6.35
2022-12-17T07:40:23.351Z,-6.58
2022-12-17T07:45:43.618Z,-6.68
2022-12-17T07:51:07.647Z,-6.59
2022-12-17T07:56:27.626Z,-6.30
2022-12-17T08:01:47.651Z,-5.41
2022-12-17T08:07:13.888Z,-4.28
2022-12-17T08:12:34.540Z,-3.09
2022-12-17T08:17:54.301Z,-3.42
2022-12-17T08:23:22.090Z,-3.94
2022-12-17T08:28:50.457Z,-3.69
2022-12-17T08:34:10.942Z,-3.01
2022-12-17T08:39:30.779Z,-2.26
2022-12-17T08:44:50.724Z,-2.04
2022-12-17T08:50:10.743Z,-0.42
2022-12-17T08:55:30.586Z,1.18
2022-12-17T09:00:50.544Z,0.63
2022-12-17T09:06:10.846Z,0.87
2022-12-17T09:11:31.010Z,0.89
2022-12-17T09:16:50.977Z,0.37
2022-12-17T09:22:11.189Z,1.30
2022-12-17T09:27:31.068Z,1.21
2022-12-17T09:32:50.975Z,1.77
2022-12-17T09:38:15.399Z,2.38
2022-12-17T09:43:49.066Z,3.28
2022-12-17T09:49:18.546Z,3.76
2022-12-17T09:54:47.128Z,3.89
2022-12-17T10:00:07.556Z,4.27
2022-12-17T10:05:34.043Z,4.67
2022-12-17T10:10:59.411Z,4.91
2022-12-17T10:16:20.434Z,3.95
2022-12-17T10:21:40.229Z,3.81
2022-12-17T10:27:07.239Z,4.87
2022-12-17T10:32:35.475Z,6.25
2022-12-17T10:37:55.695Z,6.86
2022-12-17T10:43:15.379Z,5.59
2022-12-17T10:48:42.346Z,3.97
2022-12-17T10:54:08.907Z,3.58
2022-12-17T10:59:41.395Z,3.36
2022-12-17T11:05:11.251Z,2.82
2022-12-17T11:10:42.710Z,3.75
2022-12-17T11:16:07.584Z,4.40
2022-12-17T11:21:39.216Z,5.50
2022-12-17T11:27:01.783Z,4.46
2022-12-17T11:32:49.487Z,4.01
2022-12-17T11:38:29.458Z,4.24
2022-12-17T11:44:10.711Z,5.16
2022-12-17T11:49:52.733Z,5.57
2022-12-17T11:55:35.637Z,5.56
2022-12-17T12:01:09.699Z,4.81
2022-12-17T12:06:41.708Z,3.74
2022-12-17T12:12:15.733Z,2.65
2022-12-17T12:17:50.680Z,2.07
2022-12-17T12:23:37.160Z,1.54
2022-12-17T12:29:16.387Z,1.04
2022-12-17T12:34:40.407Z,0.78
2022-12-17T12:40:12.778Z,0.50
2022-12-17T12:46:17.046Z,0.48
2022-12-17T12:51:52.854Z,0.36
2022-12-17T12:57:12.741Z,0.21
2022-12-17T13:02:37.872Z,-0.02
2022-12-17T13:07:39.416Z,-0.11
2022-12-17T13:12:47.301Z,-0.02
2022-12-17T13:17:57.550Z,-0.11
2022-12-17T13:23:11.163Z,-0.19
2022-12-17T13:28:28.293Z,-0.37
2022-12-17T13:34:07.016Z,-0.64
2022-12-17T13:39:30.401Z,-0.88
2022-12-17T13:44:45.482Z,-1.11
2022-12-17T13:50:24.459Z,-1.23
2022-12-17T13:55:29.053Z,-1.32
2022-12-17T14:00:32.479Z,-1.44
2022-12-17T14:05:37.882Z,-1.56
2022-12-17T14:10:47.643Z,-1.69
2022-12-17T14:15:52.803Z,-1.86
2022-12-17T14:20:55.647Z,-2.06
2022-12-17T14:25:57.877Z,-2.13
2022-12-17T14:36:31.495Z,-2.14
2022-12-17T14:41:56.474Z,-2.17
2022-12-17T14:47:19.553Z,-2.30
2022-12-17T14:52:30.212Z,-2.38
2022-12-17T14:57:31.624Z,-2.48
2022-12-17T15:02:37.775Z,-2.60
2022-12-17T15:07:39.674Z,-2.71
2022-12-17T15:12:43.090Z,-2.82
2022-12-17T15:17:44.633Z,-2.90
2022-12-17T15:22:47.158Z,-3.02
2022-12-17T15:27:48.674Z,-3.10
2022-12-17T15:32:50.146Z,-3.29
2022-12-17T15:37:51.665Z,-3.48
2022-12-17T15:43:12.833Z,-3.61
2022-12-17T15:48:19.540Z,-3.75
2022-12-17T15:53:20.918Z,-3.86
2022-12-17T15:58:22.326Z,-3.97
2022-12-17T16:03:23.768Z,-4.06
2022-12-17T16:08:25.351Z,-4.15
2022-12-17T16:13:26.767Z,-4.17
2022-12-17T16:18:28.315Z,-4.17
2022-12-17T16:23:30.108Z,-4.17
2022-12-17T16:28:31.626Z,-4.15
2022-12-17T16:33:37.804Z,-4.14
2022-12-17T16:38:47.304Z,-4.19
2022-12-17T16:43:49.304Z,-4.26
2022-12-17T16:48:50.880Z,-4.32
2022-12-17T16:53:52.777Z,-4.35
2022-12-17T16:58:55.396Z,-4.36
2022-12-17T17:03:57.536Z,-4.47
2022-12-17T17:08:59.045Z,-4.59
2022-12-17T17:14:00.905Z,-4.68
2022-12-17T17:19:03.423Z,-4.69
2022-12-17T17:24:18.456Z,-4.75
2022-12-17T17:29:22.494Z,-4.78
2022-12-17T17:34:23.960Z,-4.84
2022-12-17T17:39:25.900Z,-4.86
2022-12-17T17:44:27.313Z,-4.86
2022-12-17T17:49:29.018Z,-4.90
2022-12-17T17:54:31.246Z,-4.90
2022-12-17T17:59:33.956Z,-4.91
2022-12-17T18:04:35.967Z,-4.97
2022-12-17T18:09:37.446Z,-5.06
2022-12-17T18:14:46.662Z,-5.16
2022-12-17T18:19:59.363Z,-5.23
2022-12-17T18:25:00.851Z,-5.32
2022-12-17T18:30:02.306Z,-5.36
2022-12-17T18:35:04.195Z,-5.42
2022-12-17T18:40:06.541Z,-5.48
2022-12-17T18:45:08.367Z,-5.54
2022-12-17T18:50:11.019Z,-5.58
2022-12-17T18:55:12.601Z,-5.60
2022-12-17T19:00:14.903Z,-5.65
2022-12-17T19:05:16.581Z,-5.74
2022-12-17T19:10:18.131Z,-5.82
2022-12-17T19:15:19.601Z,-5.86
2022-12-17T19:20:21.056Z,-5.92
2022-12-17T19:25:23.054Z,-5.96
2022-12-17T19:30:24.572Z,-5.96
2022-12-17T19:35:26.280Z,-5.96
2022-12-17T19:40:28.001Z,-5.97
2022-12-17T19:45:31.856Z,-6.03
2022-12-17T19:50:33.419Z,-6.07
2022-12-17T19:55:35.227Z,-6.09
2022-12-17T20:00:37.000Z,-6.13
2022-12-17T20:05:38.829Z,-6.14
2022-12-17T20:10:40.440Z,-6.19
2022-12-17T20:15:41.889Z,-6.22
2022-12-17T20:20:44.417Z,-6.37
2022-12-17T20:25:45.921Z,-6.40
2022-12-17T20:30:47.452Z,-6.39
2022-12-17T20:35:48.985Z,-6.46
2022-12-17T20:40:50.410Z,-6.55
2022-12-17T20:45:55.174Z,-6.58
2022-12-17T20:50:56.697Z,-6.61
2022-12-17T20:56:19.815Z,-6.68
2022-12-17T21:01:23.378Z,-6.75
2022-12-17T21:06:32.484Z,-6.86
2022-12-17T21:11:35.151Z,-6.93
2022-12-17T21:16:38.697Z,-6.96
2022-12-17T21:21:40.302Z,-7.01
2022-12-17T21:26:43.469Z,-7.09
2022-12-17T21:31:50.306Z,-7.05
2022-12-17T21:36:52.339Z,-6.86
2022-12-17T21:42:12.581Z,-6.59
2022-12-17T21:47:14.014Z,-6.33
2022-12-17T21:52:15.444Z,-6.17
2022-12-17T21:57:16.904Z,-6.06
2022-12-17T22:02:18.402Z,-5.92
2022-12-17T22:07:22.034Z,-5.80
2022-12-17T22:12:45.702Z,-5.80
2022-12-17T22:17:47.242Z,-5.79
2022-12-17T22:22:48.921Z,-5.70
2022-12-17T22:27:50.486Z,-5.60
2022-12-17T22:33:02.213Z,-5.53
2022-12-17T22:41:36.910Z,-5.46
2022-12-17T22:44:37.449Z,-5.32
2022-12-17T22:48:52.642Z,-5.31
2022-12-17T22:53:54.674Z,-5.24
2022-12-17T22:58:57.325Z,-5.14
2022-12-17T23:04:00.232Z,-5.14
2022-12-17T23:09:01.708Z,-5.16
2022-12-17T23:14:03.633Z,-5.18
2022-12-17T23:19:06.233Z,-5.21
2022-12-17T23:24:08.322Z,-5.20
2022-12-17T23:29:19.339Z,-5.17
2022-12-17T23:34:21.116Z,-5.20
2022-12-17T23:39:22.660Z,-5.21
2022-12-17T23:44:24.314Z,-5.26
2022-12-17T23:49:26.028Z,-5.22
2022-12-17T23:54:27.718Z,-5.16
2022-12-17T23:59:29.211Z,-5.16
